sensor_id;sensor_type;location;lat;lon;timestamp;temperature;humidity
21259;DHT22;10787;53.364;-1.480;2022-11-13T00:03:38;9.70;99.90
21259;DHT22;10787;53.364;-1.480;2022-11-13T00:06:04;9.60;99.90
21259;DHT22;10787;53.364;-1.480;2022-11-13T00:08:31;9.60;99.90
21259;DHT22;10787;53.364;-1.480;2022-11-13T00:11:06;9.50;99.90
21259;DHT22;10787;53.364;-1.480;2022-11-13T00:13:33;9.40;99.90
21259;DHT22;10787;53.364;-1.480;2022-11-13T00:16:04;9.30;99.90
21259;DHT22;10787;53.364;-1.480;2022-11-13T00:18:30;9.20;99.90
21259;DHT22;10787;53.364;-1.480;2022-11-13T00:21:04;9.20;99.90
21259;DHT22;10787;53.364;-1.480;2022-11-13T00:23:31;9.10;99.90
21259;DHT22;10787;53.364;-1.480;2022-11-13T00:26:07;9.10;99.90
21259;DHT22;10787;53.364;-1.480;2022-11-13T00:28:33;9.00;99.90
21259;DHT22;10787;53.364;-1.480;2022-11-13T00:31:01;9.00;99.90
21259;DHT22;10787;53.364;-1.480;2022-11-13T00:33:27;8.90;99.90
21259;DHT22;10787;53.364;-1.480;2022-11-13T00:35:53;8.90;99.90
21259;DHT22;10787;53.364;-1.480;2022-11-13T00:38:19;8.90;99.90
21259;DHT22;10787;53.364;-1.480;2022-11-13T00:40:45;8.90;99.90
21259;DHT22;10787;53.364;-1.480;2022-11-13T00:43:11;8.80;99.90
21259;DHT22;10787;53.364;-1.480;2022-11-13T00:45:37;8.80;99.90
21259;DHT22;10787;53.364;-1.480;2022-11-13T00:48:03;8.80;99.90
21259;DHT22;10787;53.364;-1.480;2022-11-13T00:50:29;8.70;99.90
21259;DHT22;10787;53.364;-1.480;2022-11-13T00:52:55;8.70;99.90
21259;DHT22;10787;53.364;-1.480;2022-11-13T00:55:20;8.70;99.90
21259;DHT22;10787;53.364;-1.480;2022-11-13T00:57:46;8.60;99.90
21259;DHT22;10787;53.364;-1.480;2022-11-13T01:00:15;8.60;99.90
21259;DHT22;10787;53.364;-1.480;2022-11-13T01:02:44;8.60;99.90
21259;DHT22;10787;53.364;-1.480;2022-11-13T01:05:13;8.60;99.90
21259;DHT22;10787;53.364;-1.480;2022-11-13T01:07:39;8.60;99.90
21259;DHT22;10787;53.364;-1.480;2022-11-13T01:10:06;8.60;99.90
21259;DHT22;10787;53.364;-1.480;2022-11-13T01:12:34;8.60;99.90
21259;DHT22;10787;53.364;-1.480;2022-11-13T01:15:03;8.60;99.90
21259;DHT22;10787;53.364;-1.480;2022-11-13T01:17:30;8.60;99.90
21259;DHT22;10787;53.364;-1.480;2022-11-13T01:20:00;8.60;99.90
21259;DHT22;10787;53.364;-1.480;2022-11-13T01:22:26;8.60;99.90
21259;DHT22;10787;53.364;-1.480;2022-11-13T01:24:52;8.60;99.90
21259;DHT22;10787;53.364;-1.480;2022-11-13T01:27:17;8.70;99.90
21259;DHT22;10787;53.364;-1.480;2022-11-13T01:29:44;8.70;99.90
21259;DHT22;10787;53.364;-1.480;2022-11-13T01:32:11;8.70;99.90
21259;DHT22;10787;53.364;-1.480;2022-11-13T01:34:37;8.70;99.90
21259;DHT22;10787;53.364;-1.480;2022-11-13T01:37:03;8.70;99.90
21259;DHT22;10787;53.364;-1.480;2022-11-13T01:39:29;8.70;99.90
21259;DHT22;10787;53.364;-1.480;2022-11-13T01:41:57;8.60;99.90
21259;DHT22;10787;53.364;-1.480;2022-11-13T01:44:22;8.60;99.90
21259;DHT22;10787;53.364;-1.480;2022-11-13T01:46:52;8.60;99.90
21259;DHT22;10787;53.364;-1.480;2022-11-13T01:49:40;8.50;99.90
21259;DHT22;10787;53.364;-1.480;2022-11-13T01:52:13;8.50;99.90
21259;DHT22;10787;53.364;-1.480;2022-11-13T01:54:52;8.50;99.90
21259;DHT22;10787;53.364;-1.480;2022-11-13T01:57:21;8.50;99.90
21259;DHT22;10787;53.364;-1.480;2022-11-13T01:59:50;8.40;99.90
21259;DHT22;10787;53.364;-1.480;2022-11-13T02:02:18;8.40;99.90
21259;DHT22;10787;53.364;-1.480;2022-11-13T02:04:44;8.40;99.90
21259;DHT22;10787;53.364;-1.480;2022-11-13T02:07:13;8.40;99.90
21259;DHT22;10787;53.364;-1.480;2022-11-13T02:09:42;8.40;99.90
21259;DHT22;10787;53.364;-1.480;2022-11-13T02:12:14;8.40;99.90
21259;DHT22;10787;53.364;-1.480;2022-11-13T02:14:45;8.40;99.90
21259;DHT22;10787;53.364;-1.480;2022-11-13T02:17:18;8.50;99.90
21259;DHT22;10787;53.364;-1.480;2022-11-13T02:19:49;8.40;99.90
21259;DHT22;10787;53.364;-1.480;2022-11-13T02:24:49;8.40;99.90
21259;DHT22;10787;53.364;-1.480;2022-11-13T02:27:52;8.40;99.90
21259;DHT22;10787;53.364;-1.480;2022-11-13T02:30:26;8.40;99.90
21259;DHT22;10787;53.364;-1.480;2022-11-13T02:32:54;8.50;99.90
21259;DHT22;10787;53.364;-1.480;2022-11-13T02:35:34;8.50;99.90
21259;DHT22;10787;53.364;-1.480;2022-11-13T02:38:03;8.60;99.90
21259;DHT22;10787;53.364;-1.480;2022-11-13T02:40:31;8.60;99.90
21259;DHT22;10787;53.364;-1.480;2022-11-13T02:42:57;8.70;99.90
21259;DHT22;10787;53.364;-1.480;2022-11-13T02:45:23;8.70;99.90
21259;DHT22;10787;53.364;-1.480;2022-11-13T02:47:49;8.80;99.90
21259;DHT22;10787;53.364;-1.480;2022-11-13T02:50:15;8.80;99.90
21259;DHT22;10787;53.364;-1.480;2022-11-13T02:52:41;8.90;99.90
21259;DHT22;10787;53.364;-1.480;2022-11-13T02:55:07;8.90;99.90
21259;DHT22;10787;53.364;-1.480;2022-11-13T02:57:33;9.00;99.90
21259;DHT22;10787;53.364;-1.480;2022-11-13T02:59:59;9.10;99.90
21259;DHT22;10787;53.364;-1.480;2022-11-13T03:02:25;9.20;99.90
21259;DHT22;10787;53.364;-1.480;2022-11-13T03:04:50;9.30;99.90
21259;DHT22;10787;53.364;-1.480;2022-11-13T03:07:16;9.30;99.90
21259;DHT22;10787;53.364;-1.480;2022-11-13T03:09:42;9.40;99.90
21259;DHT22;10787;53.364;-1.480;2022-11-13T03:12:08;9.40;99.90
21259;DHT22;10787;53.364;-1.480;2022-11-13T03:14:35;9.50;99.90
21259;DHT22;10787;53.364;-1.480;2022-11-13T03:17:01;9.50;99.90
21259;DHT22;10787;53.364;-1.480;2022-11-13T03:19:28;9.60;99.90
21259;DHT22;10787;53.364;-1.480;2022-11-13T03:21:54;9.70;99.90
21259;DHT22;10787;53.364;-1.480;2022-11-13T03:24:20;9.70;99.90
21259;DHT22;10787;53.364;-1.480;2022-11-13T03:26:46;9.80;99.90
21259;DHT22;10787;53.364;-1.480;2022-11-13T03:29:11;9.80;99.90
21259;DHT22;10787;53.364;-1.480;2022-11-13T03:31:38;9.90;99.90
21259;DHT22;10787;53.364;-1.480;2022-11-13T03:34:03;9.90;99.90
21259;DHT22;10787;53.364;-1.480;2022-11-13T03:36:29;10.00;99.90
21259;DHT22;10787;53.364;-1.480;2022-11-13T03:38:55;10.00;99.90
21259;DHT22;10787;53.364;-1.480;2022-11-13T03:41:21;10.10;99.90
21259;DHT22;10787;53.364;-1.480;2022-11-13T03:43:48;10.10;99.90
21259;DHT22;10787;53.364;-1.480;2022-11-13T03:46:13;10.10;99.90
21259;DHT22;10787;53.364;-1.480;2022-11-13T03:48:39;10.20;99.90
21259;DHT22;10787;53.364;-1.480;2022-11-13T03:51:05;10.20;99.90
21259;DHT22;10787;53.364;-1.480;2022-11-13T03:53:31;10.20;99.90
21259;DHT22;10787;53.364;-1.480;2022-11-13T03:55:57;10.30;99.90
21259;DHT22;10787;53.364;-1.480;2022-11-13T03:58:23;10.30;99.90
21259;DHT22;10787;53.364;-1.480;2022-11-13T04:00:49;10.30;99.90
21259;DHT22;10787;53.364;-1.480;2022-11-13T04:03:16;10.30;99.90
21259;DHT22;10787;53.364;-1.480;2022-11-13T04:05:42;10.40;99.90
21259;DHT22;10787;53.364;-1.480;2022-11-13T04:08:08;10.40;99.90
21259;DHT22;10787;53.364;-1.480;2022-11-13T04:10:34;10.40;99.90
21259;DHT22;10787;53.364;-1.480;2022-11-13T04:13:00;10.40;99.90
21259;DHT22;10787;53.364;-1.480;2022-11-13T04:15:26;10.50;99.90
21259;DHT22;10787;53.364;-1.480;2022-11-13T04:17:52;10.50;99.90
21259;DHT22;10787;53.364;-1.480;2022-11-13T04:20:18;10.50;99.90
21259;DHT22;10787;53.364;-1.480;2022-11-13T04:22:44;10.50;99.90
21259;DHT22;10787;53.364;-1.480;2022-11-13T04:25:10;10.50;99.90
21259;DHT22;10787;53.364;-1.480;2022-11-13T04:27:35;10.50;99.90
21259;DHT22;10787;53.364;-1.480;2022-11-13T04:30:02;10.60;99.90
21259;DHT22;10787;53.364;-1.480;2022-11-13T04:32:28;10.60;99.90
21259;DHT22;10787;53.364;-1.480;2022-11-13T04:34:54;10.60;99.90
21259;DHT22;10787;53.364;-1.480;2022-11-13T04:37:20;10.60;99.90
21259;DHT22;10787;53.364;-1.480;2022-11-13T04:39:46;10.50;99.90
21259;DHT22;10787;53.364;-1.480;2022-11-13T04:42:11;10.50;99.90
21259;DHT22;10787;53.364;-1.480;2022-11-13T04:44:56;10.60;99.90
21259;DHT22;10787;53.364;-1.480;2022-11-13T04:47:22;10.50;99.90
21259;DHT22;10787;53.364;-1.480;2022-11-13T04:49:48;10.50;99.90
21259;DHT22;10787;53.364;-1.480;2022-11-13T04:52:14;10.50;99.90
21259;DHT22;10787;53.364;-1.480;2022-11-13T04:54:39;10.50;99.90
21259;DHT22;10787;53.364;-1.480;2022-11-13T04:57:05;10.50;99.90
21259;DHT22;10787;53.364;-1.480;2022-11-13T04:59:31;10.50;99.90
21259;DHT22;10787;53.364;-1.480;2022-11-13T05:01:57;10.50;99.90
21259;DHT22;10787;53.364;-1.480;2022-11-13T05:04:23;10.50;99.90
21259;DHT22;10787;53.364;-1.480;2022-11-13T05:06:48;10.40;99.90
21259;DHT22;10787;53.364;-1.480;2022-11-13T05:09:14;10.30;99.90
21259;DHT22;10787;53.364;-1.480;2022-11-13T05:11:40;10.30;99.90
21259;DHT22;10787;53.364;-1.480;2022-11-13T05:14:06;10.20;99.90
21259;DHT22;10787;53.364;-1.480;2022-11-13T05:16:34;10.10;99.90
21259;DHT22;10787;53.364;-1.480;2022-11-13T05:19:01;10.10;99.90
21259;DHT22;10787;53.364;-1.480;2022-11-13T05:21:35;10.00;99.90
21259;DHT22;10787;53.364;-1.480;2022-11-13T05:24:02;10.00;99.90
21259;DHT22;10787;53.364;-1.480;2022-11-13T05:26:28;10.00;99.90
21259;DHT22;10787;53.364;-1.480;2022-11-13T05:28:58;10.00;99.90
21259;DHT22;10787;53.364;-1.480;2022-11-13T05:31:25;9.90;99.90
21259;DHT22;10787;53.364;-1.480;2022-11-13T05:33:51;9.90;99.90
21259;DHT22;10787;53.364;-1.480;2022-11-13T05:36:18;9.90;99.90
21259;DHT22;10787;53.364;-1.480;2022-11-13T05:38:44;9.90;99.90
21259;DHT22;10787;53.364;-1.480;2022-11-13T05:41:13;9.90;99.90
21259;DHT22;10787;53.364;-1.480;2022-11-13T05:43:40;9.90;99.90
21259;DHT22;10787;53.364;-1.480;2022-11-13T05:48:33;9.90;99.90
21259;DHT22;10787;53.364;-1.480;2022-11-13T05:53:33;9.90;99.90
21259;DHT22;10787;53.364;-1.480;2022-11-13T05:56:05;10.00;99.90
21259;DHT22;10787;53.364;-1.480;2022-11-13T05:58:32;9.90;99.90
21259;DHT22;10787;53.364;-1.480;2022-11-13T06:01:10;9.90;99.90
21259;DHT22;10787;53.364;-1.480;2022-11-13T06:03:37;9.90;99.90
21259;DHT22;10787;53.364;-1.480;2022-11-13T06:06:05;9.90;99.90
21259;DHT22;10787;53.364;-1.480;2022-11-13T06:08:32;9.90;99.90
21259;DHT22;10787;53.364;-1.480;2022-11-13T06:11:03;9.80;99.90
21259;DHT22;10787;53.364;-1.480;2022-11-13T06:13:29;9.80;99.90
21259;DHT22;10787;53.364;-1.480;2022-11-13T06:16:03;9.80;99.90
21259;DHT22;10787;53.364;-1.480;2022-11-13T06:18:29;9.90;99.90
21259;DHT22;10787;53.364;-1.480;2022-11-13T06:21:03;9.80;99.90
21259;DHT22;10787;53.364;-1.480;2022-11-13T06:23:32;9.70;99.90
21259;DHT22;10787;53.364;-1.480;2022-11-13T06:26:03;9.70;99.90
21259;DHT22;10787;53.364;-1.480;2022-11-13T06:28:29;9.70;99.90
21259;DHT22;10787;53.364;-1.480;2022-11-13T06:30:55;9.70;99.90
21259;DHT22;10787;53.364;-1.480;2022-11-13T06:33:21;9.70;99.90
21259;DHT22;10787;53.364;-1.480;2022-11-13T06:35:47;9.70;99.90
21259;DHT22;10787;53.364;-1.480;2022-11-13T06:38:12;9.70;99.90
21259;DHT22;10787;53.364;-1.480;2022-11-13T06:40:39;9.60;99.90
21259;DHT22;10787;53.364;-1.480;2022-11-13T06:43:04;9.70;99.90
21259;DHT22;10787;53.364;-1.480;2022-11-13T06:45:30;9.60;99.90
21259;DHT22;10787;53.364;-1.480;2022-11-13T06:47:56;9.60;99.90
21259;DHT22;10787;53.364;-1.480;2022-11-13T06:50:22;9.60;99.90
21259;DHT22;10787;53.364;-1.480;2022-11-13T06:52:48;9.60;99.90
21259;DHT22;10787;53.364;-1.480;2022-11-13T06:55:14;9.60;99.90
21259;DHT22;10787;53.364;-1.480;2022-11-13T06:57:39;9.60;99.90
21259;DHT22;10787;53.364;-1.480;2022-11-13T07:00:06;9.60;99.90
21259;DHT22;10787;53.364;-1.480;2022-11-13T07:02:32;9.60;99.90
21259;DHT22;10787;53.364;-1.480;2022-11-13T07:04:58;9.60;99.90
21259;DHT22;10787;53.364;-1.480;2022-11-13T07:07:23;9.60;99.90
21259;DHT22;10787;53.364;-1.480;2022-11-13T07:09:49;9.60;99.90
21259;DHT22;10787;53.364;-1.480;2022-11-13T07:12:15;9.60;99.90
21259;DHT22;10787;53.364;-1.480;2022-11-13T07:14:41;9.60;99.90
21259;DHT22;10787;53.364;-1.480;2022-11-13T07:17:07;9.60;99.90
21259;DHT22;10787;53.364;-1.480;2022-11-13T07:19:33;9.60;99.90
21259;DHT22;10787;53.364;-1.480;2022-11-13T07:21:58;9.70;99.90
21259;DHT22;10787;53.364;-1.480;2022-11-13T07:24:24;9.60;99.90
21259;DHT22;10787;53.364;-1.480;2022-11-13T07:26:50;9.70;99.90
21259;DHT22;10787;53.364;-1.480;2022-11-13T07:29:16;9.70;99.90
21259;DHT22;10787;53.364;-1.480;2022-11-13T07:31:42;9.70;99.90
21259;DHT22;10787;53.364;-1.480;2022-11-13T07:34:07;9.70;99.90
21259;DHT22;10787;53.364;-1.480;2022-11-13T07:36:33;9.70;99.90
21259;DHT22;10787;53.364;-1.480;2022-11-13T07:38:59;9.70;99.90
21259;DHT22;10787;53.364;-1.480;2022-11-13T07:41:25;9.70;99.90
21259;DHT22;10787;53.364;-1.480;2022-11-13T07:43:51;9.60;99.90
21259;DHT22;10787;53.364;-1.480;2022-11-13T07:46:16;9.60;99.90
21259;DHT22;10787;53.364;-1.480;2022-11-13T07:48:42;9.60;99.90
21259;DHT22;10787;53.364;-1.480;2022-11-13T07:51:08;9.60;99.90
21259;DHT22;10787;53.364;-1.480;2022-11-13T07:53:34;9.60;99.90
21259;DHT22;10787;53.364;-1.480;2022-11-13T07:56:01;9.60;99.90
21259;DHT22;10787;53.364;-1.480;2022-11-13T07:58:28;9.60;99.90
21259;DHT22;10787;53.364;-1.480;2022-11-13T08:00:54;9.60;99.90
21259;DHT22;10787;53.364;-1.480;2022-11-13T08:03:20;9.70;99.90
21259;DHT22;10787;53.364;-1.480;2022-11-13T08:05:45;9.70;99.90
21259;DHT22;10787;53.364;-1.480;2022-11-13T08:08:13;9.70;99.90
21259;DHT22;10787;53.364;-1.480;2022-11-13T08:10:39;9.70;99.90
21259;DHT22;10787;53.364;-1.480;2022-11-13T08:13:08;9.70;99.90
21259;DHT22;10787;53.364;-1.480;2022-11-13T08:15:34;9.70;99.90
21259;DHT22;10787;53.364;-1.480;2022-11-13T08:18:02;9.80;99.90
21259;DHT22;10787;53.364;-1.480;2022-11-13T08:20:29;9.80;99.90
21259;DHT22;10787;53.364;-1.480;2022-11-13T08:22:57;9.80;99.90
21259;DHT22;10787;53.364;-1.480;2022-11-13T08:25:23;9.80;99.90
21259;DHT22;10787;53.364;-1.480;2022-11-13T08:27:52;9.80;99.90
21259;DHT22;10787;53.364;-1.480;2022-11-13T08:30:18;9.80;99.90
21259;DHT22;10787;53.364;-1.480;2022-11-13T08:32:44;9.80;99.90
21259;DHT22;10787;53.364;-1.480;2022-11-13T08:35:11;9.80;99.90
21259;DHT22;10787;53.364;-1.480;2022-11-13T08:37:37;9.80;99.90
21259;DHT22;10787;53.364;-1.480;2022-11-13T08:40:03;9.80;99.90
21259;DHT22;10787;53.364;-1.480;2022-11-13T08:42:29;9.90;99.90
21259;DHT22;10787;53.364;-1.480;2022-11-13T08:45:08;9.90;99.90
21259;DHT22;10787;53.364;-1.480;2022-11-13T08:47:34;10.00;99.90
21259;DHT22;10787;53.364;-1.480;2022-11-13T08:50:00;10.00;99.90
21259;DHT22;10787;53.364;-1.480;2022-11-13T08:52:25;10.10;99.90
21259;DHT22;10787;53.364;-1.480;2022-11-13T08:54:51;10.10;99.90
21259;DHT22;10787;53.364;-1.480;2022-11-13T08:57:17;10.20;99.90
21259;DHT22;10787;53.364;-1.480;2022-11-13T08:59:43;10.20;99.90
21259;DHT22;10787;53.364;-1.480;2022-11-13T09:02:14;10.20;99.90
21259;DHT22;10787;53.364;-1.480;2022-11-13T09:04:40;10.20;99.90
21259;DHT22;10787;53.364;-1.480;2022-11-13T09:07:06;10.20;99.90
21259;DHT22;10787;53.364;-1.480;2022-11-13T09:09:32;10.30;99.90
21259;DHT22;10787;53.364;-1.480;2022-11-13T09:11:59;10.40;99.90
21259;DHT22;10787;53.364;-1.480;2022-11-13T09:14:25;10.40;99.90
21259;DHT22;10787;53.364;-1.480;2022-11-13T09:16:52;10.40;99.90
21259;DHT22;10787;53.364;-1.480;2022-11-13T09:19:18;10.50;99.90
21259;DHT22;10787;53.364;-1.480;2022-11-13T09:21:44;10.50;99.90
21259;DHT22;10787;53.364;-1.480;2022-11-13T09:24:11;10.50;99.90
21259;DHT22;10787;53.364;-1.480;2022-11-13T09:26:37;10.60;99.90
21259;DHT22;10787;53.364;-1.480;2022-11-13T09:29:03;10.60;99.90
21259;DHT22;10787;53.364;-1.480;2022-11-13T09:31:29;10.60;99.90
21259;DHT22;10787;53.364;-1.480;2022-11-13T09:33:54;10.60;99.90
21259;DHT22;10787;53.364;-1.480;2022-11-13T09:36:21;10.60;99.90
21259;DHT22;10787;53.364;-1.480;2022-11-13T09:38:46;10.60;99.90
21259;DHT22;10787;53.364;-1.480;2022-11-13T09:41:17;10.50;99.90
21259;DHT22;10787;53.364;-1.480;2022-11-13T09:43:52;10.50;99.90
21259;DHT22;10787;53.364;-1.480;2022-11-13T09:49:15;10.60;99.90
21259;DHT22;10787;53.364;-1.480;2022-11-13T09:51:52;10.60;99.90
21259;DHT22;10787;53.364;-1.480;2022-11-13T09:54:20;10.60;99.90
21259;DHT22;10787;53.364;-1.480;2022-11-13T09:59:39;10.70;99.90
21259;DHT22;10787;53.364;-1.480;2022-11-13T10:05:04;10.70;99.90
21259;DHT22;10787;53.364;-1.480;2022-11-13T10:12:50;10.90;99.90
21259;DHT22;10787;53.364;-1.480;2022-11-13T10:15:17;10.90;99.90
21259;DHT22;10787;53.364;-1.480;2022-11-13T10:18:09;11.00;99.90
21259;DHT22;10787;53.364;-1.480;2022-11-13T10:20:50;11.00;99.90
21259;DHT22;10787;53.364;-1.480;2022-11-13T10:23:27;11.20;99.90
21259;DHT22;10787;53.364;-1.480;2022-11-13T10:25:55;11.30;99.90
21259;DHT22;10787;53.364;-1.480;2022-11-13T10:28:26;11.50;99.90
21259;DHT22;10787;53.364;-1.480;2022-11-13T10:30:52;11.90;99.90
21259;DHT22;10787;53.364;-1.480;2022-11-13T10:33:20;12.00;99.90
21259;DHT22;10787;53.364;-1.480;2022-11-13T10:38:59;12.10;99.90
21259;DHT22;10787;53.364;-1.480;2022-11-13T10:41:26;12.10;99.90
21259;DHT22;10787;53.364;-1.480;2022-11-13T10:46:25;11.80;99.90
21259;DHT22;10787;53.364;-1.480;2022-11-13T10:48:51;11.80;99.90
21259;DHT22;10787;53.364;-1.480;2022-11-13T10:51:21;11.90;99.90
21259;DHT22;10787;53.364;-1.480;2022-11-13T10:53:48;11.90;99.90
21259;DHT22;10787;53.364;-1.480;2022-11-13T10:56:32;12.00;99.90
21259;DHT22;10787;53.364;-1.480;2022-11-13T10:59:04;11.90;99.90
21259;DHT22;10787;53.364;-1.480;2022-11-13T11:01:48;11.90;99.90
21259;DHT22;10787;53.364;-1.480;2022-11-13T11:04:23;11.80;99.90
21259;DHT22;10787;53.364;-1.480;2022-11-13T11:06:52;11.80;99.90
21259;DHT22;10787;53.364;-1.480;2022-11-13T11:09:24;11.80;99.90
21259;DHT22;10787;53.364;-1.480;2022-11-13T11:12:14;11.90;99.90
21259;DHT22;10787;53.364;-1.480;2022-11-13T11:14:48;11.90;99.90
21259;DHT22;10787;53.364;-1.480;2022-11-13T11:17:18;12.00;99.90
21259;DHT22;10787;53.364;-1.480;2022-11-13T11:19:52;12.00;99.90
21259;DHT22;10787;53.364;-1.480;2022-11-13T11:22:22;12.10;99.90
21259;DHT22;10787;53.364;-1.480;2022-11-13T11:28:06;12.20;99.90
21259;DHT22;10787;53.364;-1.480;2022-11-13T11:30:44;12.20;99.90
21259;DHT22;10787;53.364;-1.480;2022-11-13T11:36:42;12.20;99.90
21259;DHT22;10787;53.364;-1.480;2022-11-13T11:47:15;12.20;99.90
21259;DHT22;10787;53.364;-1.480;2022-11-13T11:49:45;12.30;99.90
21259;DHT22;10787;53.364;-1.480;2022-11-13T11:52:41;12.40;99.90
21259;DHT22;10787;53.364;-1.480;2022-11-13T11:55:29;12.40;99.90
21259;DHT22;10787;53.364;-1.480;2022-11-13T12:00:39;12.30;99.90
21259;DHT22;10787;53.364;-1.480;2022-11-13T12:09:07;12.20;99.90
21259;DHT22;10787;53.364;-1.480;2022-11-13T12:11:46;12.20;99.90
21259;DHT22;10787;53.364;-1.480;2022-11-13T12:28:20;12.10;99.90
21259;DHT22;10787;53.364;-1.480;2022-11-13T12:33:23;12.10;99.90
21259;DHT22;10787;53.364;-1.480;2022-11-13T12:35:53;12.10;99.90
21259;DHT22;10787;53.364;-1.480;2022-11-13T12:38:28;12.20;99.90
21259;DHT22;10787;53.364;-1.480;2022-11-13T12:41:09;12.20;99.90
21259;DHT22;10787;53.364;-1.480;2022-11-13T12:46:38;12.30;99.90
21259;DHT22;10787;53.364;-1.480;2022-11-13T12:51:58;12.20;99.90
21259;DHT22;10787;53.364;-1.480;2022-11-13T12:54:32;12.10;99.90
21259;DHT22;10787;53.364;-1.480;2022-11-13T12:57:24;12.10;99.90
21259;DHT22;10787;53.364;-1.480;2022-11-13T13:16:40;12.00;99.90
21259;DHT22;10787;53.364;-1.480;2022-11-13T13:19:25;12.10;99.90
21259;DHT22;10787;53.364;-1.480;2022-11-13T13:21:53;12.20;99.90
21259;DHT22;10787;53.364;-1.480;2022-11-13T13:24:29;12.20;99.90
21259;DHT22;10787;53.364;-1.480;2022-11-13T13:26:55;12.20;99.90
21259;DHT22;10787;53.364;-1.480;2022-11-13T13:29:25;12.30;99.90
21259;DHT22;10787;53.364;-1.480;2022-11-13T13:47:38;12.30;99.90
21259;DHT22;10787;53.364;-1.480;2022-11-13T13:50:11;12.30;99.90
21259;DHT22;10787;53.364;-1.480;2022-11-13T13:52:38;12.30;99.90
21259;DHT22;10787;53.364;-1.480;2022-11-13T13:55:05;12.30;99.90
21259;DHT22;10787;53.364;-1.480;2022-11-13T13:57:33;12.30;99.90
21259;DHT22;10787;53.364;-1.480;2022-11-13T14:00:11;12.20;99.90
21259;DHT22;10787;53.364;-1.480;2022-11-13T14:02:47;12.20;99.90
21259;DHT22;10787;53.364;-1.480;2022-11-13T14:05:34;12.10;99.90
21259;DHT22;10787;53.364;-1.480;2022-11-13T14:08:00;12.20;99.90
21259;DHT22;10787;53.364;-1.480;2022-11-13T14:10:34;12.20;99.90
21259;DHT22;10787;53.364;-1.480;2022-11-13T14:13:01;12.20;99.90
21259;DHT22;10787;53.364;-1.480;2022-11-13T14:15:30;12.20;99.90
21259;DHT22;10787;53.364;-1.480;2022-11-13T14:18:13;12.10;99.90
21259;DHT22;10787;53.364;-1.480;2022-11-13T14:20:49;12.10;99.90
21259;DHT22;10787;53.364;-1.480;2022-11-13T14:23:49;12.10;99.90
21259;DHT22;10787;53.364;-1.480;2022-11-13T14:26:19;12.00;99.90
21259;DHT22;10787;53.364;-1.480;2022-11-13T14:28:56;12.00;99.90
21259;DHT22;10787;53.364;-1.480;2022-11-13T14:31:32;12.00;99.90
21259;DHT22;10787;53.364;-1.480;2022-11-13T14:34:10;12.00;99.90
21259;DHT22;10787;53.364;-1.480;2022-11-13T14:36:37;11.90;99.90
21259;DHT22;10787;53.364;-1.480;2022-11-13T14:39:04;11.90;99.90
21259;DHT22;10787;53.364;-1.480;2022-11-13T14:41:54;11.90;99.90
21259;DHT22;10787;53.364;-1.480;2022-11-13T14:44:30;11.90;99.90
21259;DHT22;10787;53.364;-1.480;2022-11-13T14:47:04;12.00;99.90
21259;DHT22;10787;53.364;-1.480;2022-11-13T14:49:33;12.00;99.90
21259;DHT22;10787;53.364;-1.480;2022-11-13T14:52:00;12.00;99.90
21259;DHT22;10787;53.364;-1.480;2022-11-13T14:54:35;12.00;99.90
21259;DHT22;10787;53.364;-1.480;2022-11-13T14:57:12;11.90;99.90
21259;DHT22;10787;53.364;-1.480;2022-11-13T14:59:41;11.90;99.90
21259;DHT22;10787;53.364;-1.480;2022-11-13T15:02:10;11.80;99.90
21259;DHT22;10787;53.364;-1.480;2022-11-13T15:04:36;11.90;99.90
21259;DHT22;10787;53.364;-1.480;2022-11-13T15:07:27;11.80;99.90
21259;DHT22;10787;53.364;-1.480;2022-11-13T15:09:58;11.90;99.90
21259;DHT22;10787;53.364;-1.480;2022-11-13T15:12:27;11.90;99.90
21259;DHT22;10787;53.364;-1.480;2022-11-13T15:14:53;11.80;99.90
21259;DHT22;10787;53.364;-1.480;2022-11-13T15:17:21;11.80;99.90
21259;DHT22;10787;53.364;-1.480;2022-11-13T15:19:51;11.80;99.90
21259;DHT22;10787;53.364;-1.480;2022-11-13T15:22:20;11.80;99.90
21259;DHT22;10787;53.364;-1.480;2022-11-13T15:24:46;11.80;99.90
21259;DHT22;10787;53.364;-1.480;2022-11-13T15:27:16;11.70;99.90
21259;DHT22;10787;53.364;-1.480;2022-11-13T15:29:49;11.80;99.90
21259;DHT22;10787;53.364;-1.480;2022-11-13T15:32:15;11.80;99.90
21259;DHT22;10787;53.364;-1.480;2022-11-13T15:34:43;11.70;99.90
21259;DHT22;10787;53.364;-1.480;2022-11-13T15:37:14;11.70;99.90
21259;DHT22;10787;53.364;-1.480;2022-11-13T15:39:43;11.70;99.90
21259;DHT22;10787;53.364;-1.480;2022-11-13T15:42:14;11.70;99.90
21259;DHT22;10787;53.364;-1.480;2022-11-13T15:44:41;11.70;99.90
21259;DHT22;10787;53.364;-1.480;2022-11-13T15:47:21;11.70;99.90
21259;DHT22;10787;53.364;-1.480;2022-11-13T15:49:50;11.70;99.90
21259;DHT22;10787;53.364;-1.480;2022-11-13T15:52:17;11.60;99.90
21259;DHT22;10787;53.364;-1.480;2022-11-13T15:54:49;11.60;99.90
21259;DHT22;10787;53.364;-1.480;2022-11-13T15:57:26;11.60;99.90
21259;DHT22;10787;53.364;-1.480;2022-11-13T15:59:53;11.70;99.90
21259;DHT22;10787;53.364;-1.480;2022-11-13T16:02:21;11.70;99.90
21259;DHT22;10787;53.364;-1.480;2022-11-13T16:04:51;11.70;99.90
21259;DHT22;10787;53.364;-1.480;2022-11-13T16:07:27;11.70;99.90
21259;DHT22;10787;53.364;-1.480;2022-11-13T16:09:56;11.70;99.90
21259;DHT22;10787;53.364;-1.480;2022-11-13T16:12:22;11.60;99.90
21259;DHT22;10787;53.364;-1.480;2022-11-13T16:14:48;11.60;99.90
21259;DHT22;10787;53.364;-1.480;2022-11-13T16:17:16;11.60;99.90
21259;DHT22;10787;53.364;-1.480;2022-11-13T16:19:50;11.60;99.90
21259;DHT22;10787;53.364;-1.480;2022-11-13T16:24:45;11.60;99.90
21259;DHT22;10787;53.364;-1.480;2022-11-13T16:27:40;11.60;99.90
21259;DHT22;10787;53.364;-1.480;2022-11-13T16:30:16;11.70;99.90
21259;DHT22;10787;53.364;-1.480;2022-11-13T16:32:45;11.70;99.90
21259;DHT22;10787;53.364;-1.480;2022-11-13T16:35:18;11.70;99.90
21259;DHT22;10787;53.364;-1.480;2022-11-13T16:37:45;11.60;99.90
21259;DHT22;10787;53.364;-1.480;2022-11-13T16:40:23;11.60;99.90
21259;DHT22;10787;53.364;-1.480;2022-11-13T16:42:49;11.60;99.90
21259;DHT22;10787;53.364;-1.480;2022-11-13T16:45:16;11.70;99.90
21259;DHT22;10787;53.364;-1.480;2022-11-13T16:47:45;11.70;99.90
21259;DHT22;10787;53.364;-1.480;2022-11-13T16:50:21;11.70;99.90
21259;DHT22;10787;53.364;-1.480;2022-11-13T16:52:47;11.70;99.90
21259;DHT22;10787;53.364;-1.480;2022-11-13T16:55:13;11.70;99.90
21259;DHT22;10787;53.364;-1.480;2022-11-13T16:57:41;11.70;99.90
21259;DHT22;10787;53.364;-1.480;2022-11-13T17:00:11;11.70;99.90
21259;DHT22;10787;53.364;-1.480;2022-11-13T17:02:38;11.70;99.90
21259;DHT22;10787;53.364;-1.480;2022-11-13T17:05:04;11.70;99.90
21259;DHT22;10787;53.364;-1.480;2022-11-13T17:07:30;11.70;99.90
21259;DHT22;10787;53.364;-1.480;2022-11-13T17:09:55;11.70;99.90
21259;DHT22;10787;53.364;-1.480;2022-11-13T17:12:21;11.70;99.90
21259;DHT22;10787;53.364;-1.480;2022-11-13T17:14:47;11.70;99.90
21259;DHT22;10787;53.364;-1.480;2022-11-13T17:17:13;11.70;99.90
21259;DHT22;10787;53.364;-1.480;2022-11-13T17:19:40;11.70;99.90
21259;DHT22;10787;53.364;-1.480;2022-11-13T17:22:09;11.70;99.90
21259;DHT22;10787;53.364;-1.480;2022-11-13T17:24:36;11.70;99.90